sensor_id;sensor_type;location;lat;lon;timestamp;pressure;altitude;pressure_sealevel;temperature;humidity
46782;BME280;32541;46.298;11.506;2023-05-24T00:01:12;89490.31;;;12.22;100.00
46782;BME280;32541;46.298;11.506;2023-05-24T00:03:38;89497.25;;;12.23;100.00
46782;BME280;32541;46.298;11.506;2023-05-24T00:06:04;89492.34;;;12.22;100.00
46782;BME280;32541;46.298;11.506;2023-05-24T00:08:32;89488.28;;;12.23;100.00
46782;BME280;32541;46.298;11.506;2023-05-24T00:10:57;89477.03;;;12.31;100.00
46782;BME280;32541;46.298;11.506;2023-05-24T00:13:23;89484.41;;;12.16;100.00
46782;BME280;32541;46.298;11.506;2023-05-24T00:15:48;89484.25;;;12.14;100.00
46782;BME280;32541;46.298;11.506;2023-05-24T00:18:14;89482.69;;;12.11;100.00
46782;BME280;32541;46.298;11.506;2023-05-24T00:20:42;89489.91;;;12.16;100.00
46782;BME280;32541;46.298;11.506;2023-05-24T00:23:07;89479.94;;;12.11;100.00
46782;BME280;32541;46.298;11.506;2023-05-24T00:25:33;89480.56;;;12.21;100.00
46782;BME280;32541;46.298;11.506;2023-05-24T00:27:59;89476.69;;;12.15;100.00
46782;BME280;32541;46.298;11.506;2023-05-24T00:30:24;89479.78;;;12.09;100.00
46782;BME280;32541;46.298;11.506;2023-05-24T00:32:50;89475.47;;;12.06;100.00
46782;BME280;32541;46.298;11.506;2023-05-24T00:35:15;89475.91;;;12.03;100.00
46782;BME280;32541;46.298;11.506;2023-05-24T00:37:41;89481.75;;;11.97;100.00
46782;BME280;32541;46.298;11.506;2023-05-24T00:40:09;89476.38;;;11.78;100.00
46782;BME280;32541;46.298;11.506;2023-05-24T00:42:35;89468.25;;;11.80;100.00
46782;BME280;32541;46.298;11.506;2023-05-24T00:45:00;89469.69;;;11.81;100.00
46782;BME280;32541;46.298;11.506;2023-05-24T00:47:26;89473.97;;;11.73;100.00
46782;BME280;32541;46.298;11.506;2023-05-24T00:49:51;89477.69;;;11.77;100.00
46782;BME280;32541;46.298;11.506;2023-05-24T00:52:17;89471.22;;;11.73;100.00
46782;BME280;32541;46.298;11.506;2023-05-24T00:54:42;89469.16;;;11.73;100.00
46782;BME280;32541;46.298;11.506;2023-05-24T00:57:08;89476.50;;;11.80;100.00
46782;BME280;32541;46.298;11.506;2023-05-24T00:59:34;89472.63;;;11.74;100.00
46782;BME280;32541;46.298;11.506;2023-05-24T01:02:00;89466.56;;;11.65;100.00
46782;BME280;32541;46.298;11.506;2023-05-24T01:04:25;89464.53;;;11.66;100.00
46782;BME280;32541;46.298;11.506;2023-05-24T01:12:32;89461.97;;;11.58;100.00
46782;BME280;32541;46.298;11.506;2023-05-24T01:15:20;89458.63;;;11.60;100.00
46782;BME280;32541;46.298;11.506;2023-05-24T01:20:27;89467.22;;;11.54;100.00
46782;BME280;32541;46.298;11.506;2023-05-24T01:23:38;89461.16;;;11.46;100.00
46782;BME280;32541;46.298;11.506;2023-05-24T01:26:54;89461.88;;;11.47;100.00
46782;BME280;32541;46.298;11.506;2023-05-24T01:29:20;89470.75;;;11.45;100.00
46782;BME280;32541;46.298;11.506;2023-05-24T01:31:46;89464.50;;;11.45;100.00
46782;BME280;32541;46.298;11.506;2023-05-24T01:34:12;89456.38;;;11.47;100.00
46782;BME280;32541;46.298;11.506;2023-05-24T01:36:37;89457.88;;;11.38;100.00
46782;BME280;32541;46.298;11.506;2023-05-24T01:39:03;89457.91;;;11.29;100.00
46782;BME280;32541;46.298;11.506;2023-05-24T01:41:42;89453.13;;;11.29;100.00
46782;BME280;32541;46.298;11.506;2023-05-24T01:49:58;89454.75;;;11.23;100.00
46782;BME280;32541;46.298;11.506;2023-05-24T01:52:28;89454.50;;;11.19;100.00
46782;BME280;32541;46.298;11.506;2023-05-24T01:54:56;89447.09;;;11.21;100.00
46782;BME280;32541;46.298;11.506;2023-05-24T01:57:23;89455.06;;;11.17;100.00
46782;BME280;32541;46.298;11.506;2023-05-24T01:59:51;89453.50;;;11.14;100.00
46782;BME280;32541;46.298;11.506;2023-05-24T02:02:18;89458.09;;;11.21;100.00
46782;BME280;32541;46.298;11.506;2023-05-24T02:04:43;89451.09;;;11.30;100.00
46782;BME280;32541;46.298;11.506;2023-05-24T02:07:09;89454.59;;;11.30;100.00
46782;BME280;32541;46.298;11.506;2023-05-24T02:09:35;89448.66;;;11.24;100.00
46782;BME280;32541;46.298;11.506;2023-05-24T02:12:00;89458.09;;;11.21;100.00
46782;BME280;32541;46.298;11.506;2023-05-24T02:14:26;89461.25;;;11.27;100.00
46782;BME280;32541;46.298;11.506;2023-05-24T02:16:51;89451.97;;;11.32;100.00
46782;BME280;32541;46.298;11.506;2023-05-24T02:19:17;89460.97;;;11.23;100.00
46782;BME280;32541;46.298;11.506;2023-05-24T02:21:42;89451.91;;;11.11;100.00
46782;BME280;32541;46.298;11.506;2023-05-24T02:24:08;89450.78;;;11.04;100.00
46782;BME280;32541;46.298;11.506;2023-05-24T02:26:36;89453.06;;;11.08;100.00
46782;BME280;32541;46.298;11.506;2023-05-24T02:29:02;89453.97;;;11.10;100.00
46782;BME280;32541;46.298;11.506;2023-05-24T02:31:27;89444.50;;;11.13;100.00
46782;BME280;32541;46.298;11.506;2023-05-24T02:33:54;89436.97;;;11.14;100.00
46782;BME280;32541;46.298;11.506;2023-05-24T02:36:20;89437.38;;;11.20;100.00
46782;BME280;32541;46.298;11.506;2023-05-24T02:38:48;89435.34;;;11.21;100.00
46782;BME280;32541;46.298;11.506;2023-05-24T02:41:13;89434.91;;;11.24;100.00
46782;BME280;32541;46.298;11.506;2023-05-24T02:43:42;89442.31;;;11.22;100.00
46782;BME280;32541;46.298;11.506;2023-05-24T02:46:08;89433.47;;;11.23;100.00
46782;BME280;32541;46.298;11.506;2023-05-24T02:48:33;89435.97;;;11.19;100.00
46782;BME280;32541;46.298;11.506;2023-05-24T02:50:59;89428.56;;;11.22;100.00
46782;BME280;32541;46.298;11.506;2023-05-24T02:53:27;89429.72;;;11.19;100.00
46782;BME280;32541;46.298;11.506;2023-05-24T02:55:53;89430.44;;;11.19;100.00
46782;BME280;32541;46.298;11.506;2023-05-24T02:58:18;89428.56;;;11.22;100.00
46782;BME280;32541;46.298;11.506;2023-05-24T03:00:44;89429.31;;;11.12;100.00
46782;BME280;32541;46.298;11.506;2023-05-24T03:03:09;89419.34;;;11.07;100.00
46782;BME280;32541;46.298;11.506;2023-05-24T03:05:35;89429.56;;;11.16;100.00
46782;BME280;32541;46.298;11.506;2023-05-24T03:08:00;89423.94;;;11.14;100.00
46782;BME280;32541;46.298;11.506;2023-05-24T03:10:26;89427.41;;;11.15;100.00
46782;BME280;32541;46.298;11.506;2023-05-24T03:12:51;89419.94;;;11.06;100.00
46782;BME280;32541;46.298;11.506;2023-05-24T03:15:16;89424.44;;;11.01;100.00
46782;BME280;32541;46.298;11.506;2023-05-24T03:17:42;89420.38;;;11.02;100.00
46782;BME280;32541;46.298;11.506;2023-05-24T03:20:07;89417.78;;;11.04;100.00
46782;BME280;32541;46.298;11.506;2023-05-24T03:22:33;89419.41;;;10.98;100.00
46782;BME280;32541;46.298;11.506;2023-05-24T03:24:58;89416.19;;;11.01;100.00
46782;BME280;32541;46.298;11.506;2023-05-24T03:27:23;89412.88;;;10.93;100.00
46782;BME280;32541;46.298;11.506;2023-05-24T03:29:49;89426.06;;;10.95;100.00
46782;BME280;32541;46.298;11.506;2023-05-24T03:32:15;89422.72;;;10.96;100.00
46782;BME280;32541;46.298;11.506;2023-05-24T03:34:40;89421.53;;;10.99;100.00
46782;BME280;32541;46.298;11.506;2023-05-24T03:37:05;89418.66;;;10.97;100.00
46782;BME280;32541;46.298;11.506;2023-05-24T03:39:31;89416.03;;;10.99;100.00
46782;BME280;32541;46.298;11.506;2023-05-24T03:41:56;89422.91;;;10.89;100.00
46782;BME280;32541;46.298;11.506;2023-05-24T03:44:21;89414.91;;;10.93;100.00
46782;BME280;32541;46.298;11.506;2023-05-24T03:46:47;89430.97;;;10.96;100.00
46782;BME280;32541;46.298;11.506;2023-05-24T03:49:12;89425.34;;;10.94;100.00
46782;BME280;32541;46.298;11.506;2023-05-24T03:51:37;89433.63;;;10.85;100.00
46782;BME280;32541;46.298;11.506;2023-05-24T03:54:03;89436.69;;;10.79;100.00
46782;BME280;32541;46.298;11.506;2023-05-24T03:56:28;89430.59;;;10.81;100.00
46782;BME280;32541;46.298;11.506;2023-05-24T03:58:54;89432.63;;;10.80;100.00
46782;BME280;32541;46.298;11.506;2023-05-24T04:01:21;89432.75;;;10.82;100.00
46782;BME280;32541;46.298;11.506;2023-05-24T04:03:48;89434.47;;;10.87;100.00
46782;BME280;32541;46.298;11.506;2023-05-24T04:06:15;89438.88;;;10.71;100.00
46782;BME280;32541;46.298;11.506;2023-05-24T04:08:40;89432.03;;;10.82;100.00
46782;BME280;32541;46.298;11.506;2023-05-24T04:11:06;89432.97;;;10.65;100.00
46782;BME280;32541;46.298;11.506;2023-05-24T04:13:31;89435.28;;;10.59;100.00
46782;BME280;32541;46.298;11.506;2023-05-24T04:15:57;89430.34;;;10.67;100.00
46782;BME280;32541;46.298;11.506;2023-05-24T04:18:22;89427.03;;;10.69;100.00
46782;BME280;32541;46.298;11.506;2023-05-24T04:20:47;89437.31;;;10.68;100.00
46782;BME280;32541;46.298;11.506;2023-05-24T04:23:13;89439.63;;;10.72;100.00
46782;BME280;32541;46.298;11.506;2023-05-24T04:25:38;89438.44;;;10.75;100.00
46782;BME280;32541;46.298;11.506;2023-05-24T04:28:04;89437.97;;;10.78;100.00
46782;BME280;32541;46.298;11.506;2023-05-24T04:30:30;89438.88;;;10.81;100.00
46782;BME280;32541;46.298;11.506;2023-05-24T04:32:56;89432.00;;;10.91;100.00
46782;BME280;32541;46.298;11.506;2023-05-24T04:35:23;89435.34;;;10.90;100.00
46782;BME280;32541;46.298;11.506;2023-05-24T04:37:50;89439.22;;;10.96;100.00
46782;BME280;32541;46.298;11.506;2023-05-24T04:40:15;89439.63;;;11.02;100.00
46782;BME280;32541;46.298;11.506;2023-05-24T04:42:41;89430.22;;;11.05;100.00
46782;BME280;32541;46.298;11.506;2023-05-24T04:45:07;89430.94;;;11.06;100.00
46782;BME280;32541;46.298;11.506;2023-05-24T04:47:33;89437.28;;;11.08;100.00
46782;BME280;32541;46.298;11.506;2023-05-24T04:49:58;89434.22;;;11.14;100.00
46782;BME280;32541;46.298;11.506;2023-05-24T04:52:24;89439.41;;;11.20;100.00
46782;BME280;32541;46.298;11.506;2023-05-24T04:54:49;89436.81;;;11.22;100.00
46782;BME280;32541;46.298;11.506;2023-05-24T04:57:15;89439.25;;;11.27;100.00
46782;BME280;32541;46.298;11.506;2023-05-24T04:59:41;89435.00;;;11.36;100.00
46782;BME280;32541;46.298;11.506;2023-05-24T05:02:06;89437.22;;;11.28;100.00
46782;BME280;32541;46.298;11.506;2023-05-24T05:04:32;89445.31;;;11.26;100.00
46782;BME280;32541;46.298;11.506;2023-05-24T05:06:57;89440.69;;;11.28;100.00
46782;BME280;32541;46.298;11.506;2023-05-24T05:09:22;89436.28;;;11.35;100.00
46782;BME280;32541;46.298;11.506;2023-05-24T05:11:49;89432.97;;;11.36;100.00
46782;BME280;32541;46.298;11.506;2023-05-24T05:14:14;89442.34;;;11.43;100.00
46782;BME280;32541;46.298;11.506;2023-05-24T05:16:41;89438.44;;;11.46;100.00
46782;BME280;32541;46.298;11.506;2023-05-24T05:19:06;89440.53;;;11.57;100.00
46782;BME280;32541;46.298;11.506;2023-05-24T05:21:32;89434.75;;;11.53;100.00
46782;BME280;32541;46.298;11.506;2023-05-24T05:23:59;89433.06;;;11.48;100.00
46782;BME280;32541;46.298;11.506;2023-05-24T05:26:28;89436.25;;;11.44;100.00
46782;BME280;32541;46.298;11.506;2023-05-24T05:28:55;89435.69;;;11.46;100.00
46782;BME280;32541;46.298;11.506;2023-05-24T05:31:21;89430.75;;;11.44;100.00
46782;BME280;32541;46.298;11.506;2023-05-24T05:33:47;89425.97;;;11.45;100.00
46782;BME280;32541;46.298;11.506;2023-05-24T05:36:13;89433.91;;;11.50;100.00
46782;BME280;32541;46.298;11.506;2023-05-24T05:38:38;89435.53;;;11.44;100.00
46782;BME280;32541;46.298;11.506;2023-05-24T05:41:04;89425.50;;;11.48;100.00
46782;BME280;32541;46.298;11.506;2023-05-24T05:43:30;89428.78;;;11.56;100.00
46782;BME280;32541;46.298;11.506;2023-05-24T05:45:55;89424.00;;;11.57;100.00
46782;BME280;32541;46.298;11.506;2023-05-24T05:48:21;89427.50;;;11.57;100.00
46782;BME280;32541;46.298;11.506;2023-05-24T05:50:47;89427.66;;;11.50;100.00
46782;BME280;32541;46.298;11.506;2023-05-24T05:53:14;89430.09;;;11.55;100.00
46782;BME280;32541;46.298;11.506;2023-05-24T05:55:39;89429.00;;;11.70;100.00
46782;BME280;32541;46.298;11.506;2023-05-24T05:58:05;89429.00;;;11.91;100.00
46782;BME280;32541;46.298;11.506;2023-05-24T06:00:30;89428.03;;;12.08;100.00
46782;BME280;32541;46.298;11.506;2023-05-24T06:02:56;89435.50;;;12.17;100.00
46782;BME280;32541;46.298;11.506;2023-05-24T06:05:21;89423.88;;;12.18;100.00
46782;BME280;32541;46.298;11.506;2023-05-24T06:07:46;89427.34;;;12.19;100.00
46782;BME280;32541;46.298;11.506;2023-05-24T06:10:12;89426.75;;;12.20;100.00
46782;BME280;32541;46.298;11.506;2023-05-24T06:12:37;89421.75;;;12.29;100.00
46782;BME280;32541;46.298;11.506;2023-05-24T06:15:08;89416.63;;;12.35;100.00
46782;BME280;32541;46.298;11.506;2023-05-24T06:17:34;89421.94;;;12.54;100.00
46782;BME280;32541;46.298;11.506;2023-05-24T06:20:01;89432.53;;;12.57;100.00
46782;BME280;32541;46.298;11.506;2023-05-24T06:22:36;89431.75;;;12.45;100.00
46782;BME280;32541;46.298;11.506;2023-05-24T06:25:03;89424.13;;;12.55;100.00
46782;BME280;32541;46.298;11.506;2023-05-24T06:27:29;89426.66;;;12.63;100.00
46782;BME280;32541;46.298;11.506;2023-05-24T06:29:55;89421.28;;;12.65;100.00
46782;BME280;32541;46.298;11.506;2023-05-24T06:32:20;89421.50;;;12.69;100.00
46782;BME280;32541;46.298;11.506;2023-05-24T06:34:46;89420.50;;;12.97;100.00
46782;BME280;32541;46.298;11.506;2023-05-24T06:37:11;89420.25;;;13.05;96.60
46782;BME280;32541;46.298;11.506;2023-05-24T06:39:39;89421.63;;;13.27;97.13
46782;BME280;32541;46.298;11.506;2023-05-24T06:42:04;89421.63;;;13.39;97.35
46782;BME280;32541;46.298;11.506;2023-05-24T06:44:30;89424.97;;;13.49;96.28
46782;BME280;32541;46.298;11.506;2023-05-24T06:46:59;89421.34;;;13.69;95.82
46782;BME280;32541;46.298;11.506;2023-05-24T06:49:24;89423.00;;;13.98;92.38
46782;BME280;32541;46.298;11.506;2023-05-24T06:51:49;89426.06;;;14.15;92.97
46782;BME280;32541;46.298;11.506;2023-05-24T06:54:15;89426.63;;;14.37;90.23
46782;BME280;32541;46.298;11.506;2023-05-24T06:56:41;89424.00;;;14.27;89.08
46782;BME280;32541;46.298;11.506;2023-05-24T06:59:06;89420.78;;;14.19;88.13
46782;BME280;32541;46.298;11.506;2023-05-24T07:01:32;89425.69;;;14.21;88.21
46782;BME280;32541;46.298;11.506;2023-05-24T07:03:58;89427.34;;;13.89;84.48
46782;BME280;32541;46.298;11.506;2023-05-24T07:06:23;89425.66;;;13.72;83.68
46782;BME280;32541;46.298;11.506;2023-05-24T07:08:49;89430.25;;;13.68;84.28
46782;BME280;32541;46.298;11.506;2023-05-24T07:11:14;89423.53;;;13.71;83.33
46782;BME280;32541;46.298;11.506;2023-05-24T07:13:40;89422.53;;;13.89;84.08
46782;BME280;32541;46.298;11.506;2023-05-24T07:16:05;89418.28;;;14.00;85.35
46782;BME280;32541;46.298;11.506;2023-05-24T07:18:31;89417.88;;;13.80;82.33
46782;BME280;32541;46.298;11.506;2023-05-24T07:20:56;89418.56;;;14.29;82.26
46782;BME280;32541;46.298;11.506;2023-05-24T07:23:22;89418.56;;;14.29;82.66
46782;BME280;32541;46.298;11.506;2023-05-24T07:25:47;89423.19;;;14.50;81.75
46782;BME280;32541;46.298;11.506;2023-05-24T07:28:13;89419.84;;;14.52;82.84
46782;BME280;32541;46.298;11.506;2023-05-24T07:30:40;89416.41;;;14.65;83.98
46782;BME280;32541;46.298;11.506;2023-05-24T07:33:05;89406.09;;;14.79;82.00
46782;BME280;32541;46.298;11.506;2023-05-24T07:35:31;89403.97;;;14.91;79.83
46782;BME280;32541;46.298;11.506;2023-05-24T07:37:56;89413.16;;;15.07;77.93
46782;BME280;32541;46.298;11.506;2023-05-24T07:40:22;89404.47;;;15.26;77.43
46782;BME280;32541;46.298;11.506;2023-05-24T07:42:48;89406.53;;;15.26;78.25
46782;BME280;32541;46.298;11.506;2023-05-24T07:45:13;89396.69;;;15.36;79.37
46782;BME280;32541;46.298;11.506;2023-05-24T07:47:39;89396.75;;;15.50;80.21
46782;BME280;32541;46.298;11.506;2023-05-24T07:50:05;89398.88;;;15.65;80.55
46782;BME280;32541;46.298;11.506;2023-05-24T07:52:31;89394.47;;;15.87;78.33
46782;BME280;32541;46.298;11.506;2023-05-24T07:54:56;89386.53;;;16.09;77.89
46782;BME280;32541;46.298;11.506;2023-05-24T07:57:21;89379.38;;;16.33;73.87
46782;BME280;32541;46.298;11.506;2023-05-24T07:59:47;89384.09;;;16.44;74.71
46782;BME280;32541;46.298;11.506;2023-05-24T08:02:13;89386.75;;;16.56;74.33
46782;BME280;32541;46.298;11.506;2023-05-24T08:04:40;89384.34;;;16.64;73.70
46782;BME280;32541;46.298;11.506;2023-05-24T08:07:06;89376.97;;;16.84;73.79
46782;BME280;32541;46.298;11.506;2023-05-24T08:09:31;89372.97;;;17.03;72.54
46782;BME280;32541;46.298;11.506;2023-05-24T08:12:00;89374.41;;;17.19;67.17
46782;BME280;32541;46.298;11.506;2023-05-24T08:14:26;89374.16;;;17.29;68.00
46782;BME280;32541;46.298;11.506;2023-05-24T08:16:52;89375.50;;;17.44;63.50
46782;BME280;32541;46.298;11.506;2023-05-24T08:19:17;89374.75;;;16.96;63.71
46782;BME280;32541;46.298;11.506;2023-05-24T08:21:43;89374.03;;;16.96;64.84
46782;BME280;32541;46.298;11.506;2023-05-24T08:24:09;89373.44;;;17.13;65.14
46782;BME280;32541;46.298;11.506;2023-05-24T08:26:34;89359.53;;;17.44;64.58
46782;BME280;32541;46.298;11.506;2023-05-24T08:29:00;89358.38;;;17.81;65.05
46782;BME280;32541;46.298;11.506;2023-05-24T08:31:27;89358.03;;;17.72;66.25
46782;BME280;32541;46.298;11.506;2023-05-24T08:33:52;89354.44;;;17.70;63.23
46782;BME280;32541;46.298;11.506;2023-05-24T08:36:19;89350.63;;;17.95;61.52
46782;BME280;32541;46.298;11.506;2023-05-24T08:38:44;89352.22;;;18.00;60.69
46782;BME280;32541;46.298;11.506;2023-05-24T08:41:11;89349.50;;;17.68;62.65
46782;BME280;32541;46.298;11.506;2023-05-24T08:43:37;89357.44;;;17.92;62.38
46782;BME280;32541;46.298;11.506;2023-05-24T08:46:03;89353.00;;;17.53;62.07
46782;BME280;32541;46.298;11.506;2023-05-24T08:48:29;89350.03;;;17.49;63.80
46782;BME280;32541;46.298;11.506;2023-05-24T08:50:56;89351.56;;;17.52;62.52
46782;BME280;32541;46.298;11.506;2023-05-24T08:53:22;89349.44;;;17.66;64.37
46782;BME280;32541;46.298;11.506;2023-05-24T08:55:49;89352.47;;;17.41;66.05
46782;BME280;32541;46.298;11.506;2023-05-24T08:58:17;89347.09;;;17.61;65.11
46782;BME280;32541;46.298;11.506;2023-05-24T09:00:43;89341.44;;;17.74;65.69
46782;BME280;32541;46.298;11.506;2023-05-24T09:03:09;89350.75;;;17.50;62.40
46782;BME280;32541;46.298;11.506;2023-05-24T09:05:36;89346.53;;;17.17;64.19
46782;BME280;32541;46.298;11.506;2023-05-24T09:08:02;89336.84;;;17.34;63.02
46782;BME280;32541;46.298;11.506;2023-05-24T09:10:28;89335.25;;;17.45;65.20
46782;BME280;32541;46.298;11.506;2023-05-24T09:12:57;89334.72;;;17.97;62.61
46782;BME280;32541;46.298;11.506;2023-05-24T09:15:23;89328.81;;;18.22;62.32
46782;BME280;32541;46.298;11.506;2023-05-24T09:17:49;89326.44;;;17.82;62.84
46782;BME280;32541;46.298;11.506;2023-05-24T09:20:15;89321.88;;;17.72;65.12
46782;BME280;32541;46.298;11.506;2023-05-24T09:22:44;89317.16;;;17.93;63.79
46782;BME280;32541;46.298;11.506;2023-05-24T09:25:13;89316.97;;;18.22;60.56
46782;BME280;32541;46.298;11.506;2023-05-24T09:27:39;89319.84;;;18.42;60.45
46782;BME280;32541;46.298;11.506;2023-05-24T09:30:10;89309.38;;;18.75;59.99
46782;BME280;32541;46.298;11.506;2023-05-24T09:32:36;89316.28;;;18.74;61.96
46782;BME280;32541;46.298;11.506;2023-05-24T09:35:02;89303.81;;;18.75;61.17
46782;BME280;32541;46.298;11.506;2023-05-24T09:37:35;89307.78;;;18.70;59.19
46782;BME280;32541;46.298;11.506;2023-05-24T09:40:00;89312.34;;;19.17;62.38
46782;BME280;32541;46.298;11.506;2023-05-24T09:42:26;89300.00;;;19.04;58.88
46782;BME280;32541;46.298;11.506;2023-05-24T09:45:07;89297.03;;;19.55;59.97
46782;BME280;32541;46.298;11.506;2023-05-24T09:47:43;89298.84;;;19.29;56.98
46782;BME280;32541;46.298;11.506;2023-05-24T09:50:14;89291.06;;;18.88;57.37
46782;BME280;32541;46.298;11.506;2023-05-24T09:52:40;89291.03;;;19.06;60.07
46782;BME280;32541;46.298;11.506;2023-05-24T09:55:12;89281.16;;;19.60;59.45
46782;BME280;32541;46.298;11.506;2023-05-24T09:57:38;89290.06;;;18.99;60.53
46782;BME280;32541;46.298;11.506;2023-05-24T10:00:05;89283.31;;;19.42;58.66
46782;BME280;32541;46.298;11.506;2023-05-24T10:02:38;89281.34;;;19.46;57.08
46782;BME280;32541;46.298;11.506;2023-05-24T10:05:04;89283.78;;;19.95;58.66
46782;BME280;32541;46.298;11.506;2023-05-24T10:07:32;89283.25;;;20.01;55.76
46782;BME280;32541;46.298;11.506;2023-05-24T10:09:58;89278.72;;;20.11;57.65
46782;BME280;32541;46.298;11.506;2023-05-24T10:12:25;89276.09;;;20.59;58.07
46782;BME280;32541;46.298;11.506;2023-05-24T10:14:51;89285.44;;;19.63;55.02
46782;BME280;32541;46.298;11.506;2023-05-24T10:17:17;89279.59;;;19.17;56.46
46782;BME280;32541;46.298;11.506;2023-05-24T10:19:42;89288.91;;;19.24;57.34
46782;BME280;32541;46.298;11.506;2023-05-24T10:22:09;89284.16;;;19.46;56.04
46782;BME280;32541;46.298;11.506;2023-05-24T10:24:38;89280.44;;;19.59;58.96
46782;BME280;32541;46.298;11.506;2023-05-24T10:27:09;89278.50;;;19.83;57.23
46782;BME280;32541;46.298;11.506;2023-05-24T10:32:36;89275.41;;;19.36;55.51
46782;BME280;32541;46.298;11.506;2023-05-24T10:35:03;89271.84;;;19.53;58.21
46782;BME280;32541;46.298;11.506;2023-05-24T10:37:30;89285.00;;;19.70;58.85
46782;BME280;32541;46.298;11.506;2023-05-24T10:39:57;89280.66;;;19.65;59.11
46782;BME280;32541;46.298;11.506;2023-05-24T10:42:22;89271.91;;;19.75;59.21
46782;BME280;32541;46.298;11.506;2023-05-24T10:44:48;89272.97;;;19.66;58.11
46782;BME280;32541;46.298;11.506;2023-05-24T10:47:14;89266.03;;;19.67;59.18
46782;BME280;32541;46.298;11.506;2023-05-24T10:49:51;89262.84;;;19.55;56.41
46782;BME280;32541;46.298;11.506;2023-05-24T10:52:17;89266.50;;;19.59;57.52
46782;BME280;32541;46.298;11.506;2023-05-24T10:55:08;89268.13;;;19.66;57.11
46782;BME280;32541;46.298;11.506;2023-05-24T10:57:35;89262.97;;;19.39;58.70
46782;BME280;32541;46.298;11.506;2023-05-24T11:02:48;89250.47;;;19.60;59.36
46782;BME280;32541;46.298;11.506;2023-05-24T11:05:14;89257.63;;;19.65;59.98
46782;BME280;32541;46.298;11.506;2023-05-24T11:07:41;89261.97;;;19.70;58.28
46782;BME280;32541;46.298;11.506;2023-05-24T11:10:14;89259.81;;;19.29;60.89
46782;BME280;32541;46.298;11.506;2023-05-24T11:12:41;89260.88;;;19.20;61.01
46782;BME280;32541;46.298;11.506;2023-05-24T11:15:09;89251.44;;;19.09;60.93
46782;BME280;32541;46.298;11.506;2023-05-24T11:20:41;89259.31;;;18.07;65.83
46782;BME280;32541;46.298;11.506;2023-05-24T11:23:08;89268.00;;;17.48;68.40
46782;BME280;32541;46.298;11.506;2023-05-24T11:25:37;89288.91;;;17.34;71.74
46782;BME280;32541;46.298;11.506;2023-05-24T11:28:06;89298.16;;;16.91;73.52
46782;BME280;32541;46.298;11.506;2023-05-24T11:30:40;89329.41;;;16.18;79.13
46782;BME280;32541;46.298;11.506;2023-05-24T11:33:19;89379.38;;;15.77;78.47
46782;BME280;32541;46.298;11.506;2023-05-24T11:35:49;89389.66;;;15.61;80.10
46782;BME280;32541;46.298;11.506;2023-05-24T11:38:15;89415.88;;;15.32;80.75
46782;BME280;32541;46.298;11.506;2023-05-24T11:40:42;89426.94;;;15.32;77.84
46782;BME280;32541;46.298;11.506;2023-05-24T11:43:11;89421.06;;;15.13;79.69
46782;BME280;32541;46.298;11.506;2023-05-24T11:45:40;89424.69;;;14.65;81.56
46782;BME280;32541;46.298;11.506;2023-05-24T11:48:07;89436.69;;;14.07;85.49
46782;BME280;32541;46.298;11.506;2023-05-24T11:50:37;89447.22;;;14.11;84.44
46782;BME280;32541;46.298;11.506;2023-05-24T11:53:02;89456.13;;;14.09;86.23
46782;BME280;32541;46.298;11.506;2023-05-24T11:55:28;89455.91;;;14.05;85.15
46782;BME280;32541;46.298;11.506;2023-05-24T11:57:57;89460.00;;;14.04;86.25
46782;BME280;32541;46.298;11.506;2023-05-24T12:00:24;89466.53;;;13.74;87.23
46782;BME280;32541;46.298;11.506;2023-05-24T12:02:50;89474.09;;;13.62;87.50
46782;BME280;32541;46.298;11.506;2023-05-24T12:05:17;89466.75;;;13.66;89.92
46782;BME280;32541;46.298;11.506;2023-05-24T12:07:43;89471.94;;;13.60;92.67
46782;BME280;32541;46.298;11.506;2023-05-24T12:10:14;89481.41;;;13.57;92.73
46782;BME280;32541;46.298;11.506;2023-05-24T12:12:46;89474.69;;;13.49;92.48
46782;BME280;32541;46.298;11.506;2023-05-24T12:15:11;89481.78;;;13.40;92.12
46782;BME280;32541;46.298;11.506;2023-05-24T12:17:39;89483.91;;;13.18;88.38
46782;BME280;32541;46.298;11.506;2023-05-24T12:20:04;89490.53;;;13.36;88.26
46782;BME280;32541;46.298;11.506;2023-05-24T12:22:30;89499.19;;;13.43;89.19
46782;BME280;32541;46.298;11.506;2023-05-24T12:24:56;89504.84;;;13.45;91.10
46782;BME280;32541;46.298;11.506;2023-05-24T12:27:29;89508.47;;;13.59;90.14
46782;BME280;32541;46.298;11.506;2023-05-24T12:29:55;89505.44;;;13.55;90.51
46782;BME280;32541;46.298;11.506;2023-05-24T12:32:20;89504.72;;;13.43;91.22
46782;BME280;32541;46.298;11.506;2023-05-24T12:34:48;89508.47;;;13.59;89.72
46782;BME280;32541;46.298;11.506;2023-05-24T12:37:14;89520.59;;;13.54;90.33
46782;BME280;32541;46.298;11.506;2023-05-24T12:39:39;89519.84;;;13.42;90.39
46782;BME280;32541;46.298;11.506;2023-05-24T12:42:06;89534.78;;;12.50;99.90
46782;BME280;32541;46.298;11.506;2023-05-24T12:44:34;89533.19;;;11.83;100.00
46782;BME280;32541;46.298;11.506;2023-05-24T12:47:02;89538.28;;;11.77;100.00
46782;BME280;32541;46.298;11.506;2023-05-24T12:49:28;89538.78;;;11.95;100.00
46782;BME280;32541;46.298;11.506;2023-05-24T12:51:54;89530.59;;;12.06;100.00
46782;BME280;32541;46.298;11.506;2023-05-24T12:54:22;89532.44;;;12.35;100.00
46782;BME280;32541;46.298;11.506;2023-05-24T12:56:48;89525.97;;;12.42;100.00
46782;BME280;32541;46.298;11.506;2023-05-24T12:59:14;89515.00;;;12.53;100.00
46782;BME280;32541;46.298;11.506;2023-05-24T13:01:39;89512.25;;;12.53;100.00
46782;BME280;32541;46.298;11.506;2023-05-24T13:04:05;89507.66;;;12.67;100.00
46782;BME280;32541;46.298;11.506;2023-05-24T13:06:30;89507.81;;;12.81;100.00